Dalbeattie, United Kingdom
Current Conditions -  °F | °C
As of 12:50 PM on Thursday 23 Oct 2014 (Local Time) from EGNC Reporting Station
Rain Showers Rain Showers  
Wind Chill: 57°   Ceiling: 2500
Heat Index: 57°   Visibility: 6mi
Dew Point: 55°   Wind: 13mph
Humidity: 94%   Direction: 240°WSW
Pressure: 29.85"   Gusts: NA
Location:  54.93°N, 3.82°W
Report Text: EGNC 231150Z 24011KT 9999 VCSH FEW015 SCT018 BKN025 14/13 Q1011
Loading
Personal Weather Stations






























Interactive Weather Map
Tropical Storm Tracking
New forecast layout! Learn more

10-Day Weather Forecast

Advertisements
Track Severe Weather on mobile